createdAt,value
2018-10-19T00:00:25.040Z,982.65
2018-10-19T00:01:25.013Z,982.61
2018-10-19T00:02:25.016Z,982.64
2018-10-19T00:03:25.009Z,982.61
2018-10-19T00:04:25.037Z,982.62
2018-10-19T00:05:25.008Z,982.61
2018-10-19T00:06:25.005Z,982.59
2018-10-19T00:07:25.007Z,982.58
2018-10-19T00:08:25.005Z,982.60
2018-10-19T00:09:25.033Z,982.61
2018-10-19T00:10:25.000Z,982.58
2018-10-19T00:11:24.999Z,982.56
2018-10-19T00:12:25.004Z,982.55
2018-10-19T00:13:24.997Z,982.55
2018-10-19T00:14:25.042Z,982.56
2018-10-19T00:15:24.997Z,982.57
2018-10-19T00:16:24.994Z,982.56
2018-10-19T00:17:24.988Z,982.57
2018-10-19T00:18:24.991Z,982.55
2018-10-19T00:19:25.015Z,982.55
2018-10-19T00:20:24.988Z,982.57
2018-10-19T00:21:24.984Z,982.54
2018-10-19T00:22:24.984Z,982.55
2018-10-19T00:23:24.992Z,982.56
2018-10-19T00:24:25.008Z,982.57
2018-10-19T00:25:24.980Z,982.55
2018-10-19T00:26:24.980Z,982.52
2018-10-19T00:27:24.973Z,982.54
2018-10-19T00:28:24.972Z,982.56
2018-10-19T00:29:25.009Z,982.53
2018-10-19T00:30:24.968Z,982.56
2018-10-19T00:31:24.973Z,982.55
2018-10-19T00:32:24.968Z,982.55
2018-10-19T00:33:24.963Z,982.53
2018-10-19T00:34:24.994Z,982.56
2018-10-19T00:35:24.995Z,982.54
2018-10-19T00:36:24.963Z,982.53
2018-10-19T00:37:24.964Z,982.51
2018-10-19T00:38:24.961Z,982.50
2018-10-19T00:39:24.962Z,982.53
2018-10-19T00:40:24.991Z,982.52
2018-10-19T00:41:24.956Z,982.55
2018-10-19T00:42:24.956Z,982.50
2018-10-19T00:43:24.955Z,982.52
2018-10-19T00:44:24.956Z,982.53
2018-10-19T00:45:24.985Z,982.53
2018-10-19T00:46:24.949Z,982.51
2018-10-19T00:47:24.948Z,982.53
2018-10-19T00:48:24.947Z,982.50
2018-10-19T00:49:24.948Z,982.50
2018-10-19T00:50:24.976Z,982.51
2018-10-19T00:51:24.943Z,982.50
2018-10-19T00:52:24.939Z,982.47
2018-10-19T00:53:24.947Z,982.54
2018-10-19T00:54:24.937Z,982.50
2018-10-19T00:55:24.968Z,982.47
2018-10-19T00:56:24.936Z,982.45
2018-10-19T00:57:24.956Z,982.48
2018-10-19T00:58:24.936Z,982.44
2018-10-19T00:59:24.931Z,982.47
2018-10-19T01:00:24.955Z,982.46
2018-10-19T01:01:24.957Z,982.43
2018-10-19T01:02:24.921Z,982.46
2018-10-19T01:03:24.924Z,982.42
2018-10-19T01:04:24.926Z,982.37
2018-10-19T01:05:24.921Z,982.39
2018-10-19T01:06:24.945Z,982.38
2018-10-19T01:07:24.918Z,982.36
2018-10-19T01:08:24.916Z,982.35
2018-10-19T01:09:24.914Z,982.33
2018-10-19T01:10:24.917Z,982.32
2018-10-19T01:11:24.944Z,982.36
2018-10-19T01:12:24.914Z,982.30
2018-10-19T01:13:24.912Z,982.32
2018-10-19T01:14:24.906Z,982.33
2018-10-19T01:15:24.903Z,982.31
2018-10-19T01:16:24.934Z,982.29
2018-10-19T01:17:24.903Z,982.31
2018-10-19T01:18:24.904Z,982.29
2018-10-19T01:19:24.902Z,982.32
2018-10-19T01:20:24.902Z,982.30
2018-10-19T01:21:24.929Z,982.31
2018-10-19T01:22:24.894Z,982.33
2018-10-19T01:23:24.894Z,982.33
2018-10-19T01:24:24.893Z,982.34
2018-10-19T01:25:24.889Z,982.33
2018-10-19T01:26:24.921Z,982.33
2018-10-19T01:27:24.886Z,982.36
2018-10-19T01:28:24.887Z,982.33
2018-10-19T01:29:24.884Z,982.36
2018-10-19T01:30:24.883Z,982.37
2018-10-19T01:31:24.916Z,982.36
2018-10-19T01:32:24.891Z,982.36
2018-10-19T01:33:24.879Z,982.38
2018-10-19T01:34:24.878Z,982.38
2018-10-19T01:35:24.882Z,982.38
2018-10-19T01:36:24.908Z,982.38
2018-10-19T01:37:24.872Z,982.36
2018-10-19T01:38:24.872Z,982.40
2018-10-19T01:39:24.869Z,982.42
2018-10-19T01:40:24.901Z,982.39
2018-10-19T01:41:24.869Z,982.41
2018-10-19T01:42:24.865Z,982.40
2018-10-19T01:43:24.864Z,982.41
2018-10-19T01:44:24.867Z,982.40
2018-10-19T01:45:24.891Z,982.40
2018-10-19T01:46:24.886Z,982.39
2018-10-19T01:47:24.854Z,982.41
2018-10-19T01:48:24.852Z,982.40
2018-10-19T01:49:24.853Z,982.45
2018-10-19T01:50:24.852Z,982.42
2018-10-19T01:51:24.878Z,982.43
2018-10-19T01:52:24.851Z,982.43
2018-10-19T01:53:24.848Z,982.45
2018-10-19T01:54:24.846Z,982.46
2018-10-19T01:55:24.873Z,982.46
2018-10-19T01:56:24.843Z,982.46
2018-10-19T01:57:24.844Z,982.46
2018-10-19T01:58:24.838Z,982.46
2018-10-19T01:59:24.839Z,982.45
2018-10-19T02:00:24.872Z,982.48
2018-10-19T02:01:24.835Z,982.48
2018-10-19T02:02:24.835Z,982.44
2018-10-19T02:03:24.831Z,982.43
2018-10-19T02:04:24.831Z,982.45
2018-10-19T02:05:24.860Z,982.47
2018-10-19T02:06:24.826Z,982.46
2018-10-19T02:07:24.823Z,982.47
2018-10-19T02:08:24.825Z,982.45
2018-10-19T02:09:24.824Z,982.45
2018-10-19T02:10:24.848Z,982.45
2018-10-19T02:11:24.819Z,982.42
2018-10-19T02:12:24.813Z,982.40
2018-10-19T02:13:24.817Z,982.41
2018-10-19T02:14:24.848Z,982.39
2018-10-19T02:15:24.821Z,982.40
2018-10-19T02:16:24.839Z,982.41
2018-10-19T02:17:24.808Z,982.40
2018-10-19T02:18:24.809Z,982.36
2018-10-19T02:19:24.806Z,982.39
2018-10-19T02:20:24.837Z,982.42
2018-10-19T02:21:24.801Z,982.42
2018-10-19T02:22:24.801Z,982.42
2018-10-19T02:23:24.800Z,982.39
2018-10-19T02:24:24.825Z,982.44
2018-10-19T02:25:24.796Z,982.42
2018-10-19T02:26:24.825Z,982.44
2018-10-19T02:27:24.793Z,982.45
2018-10-19T02:28:24.793Z,982.45
2018-10-19T02:29:24.794Z,982.46
2018-10-19T02:30:24.826Z,982.49
2018-10-19T02:31:24.786Z,982.46
2018-10-19T02:32:24.781Z,982.48
2018-10-19T02:33:24.783Z,982.51
2018-10-19T02:34:24.814Z,982.49
2018-10-19T02:35:24.780Z,982.47
2018-10-19T02:36:24.774Z,982.49
2018-10-19T02:37:24.772Z,982.50
2018-10-19T02:38:24.777Z,982.48
2018-10-19T02:39:24.801Z,982.44
2018-10-19T02:40:24.771Z,982.45
2018-10-19T02:41:24.772Z,982.46
2018-10-19T02:42:24.767Z,982.47
2018-10-19T02:43:24.761Z,982.43
2018-10-19T02:44:24.799Z,982.50
2018-10-19T02:45:24.761Z,982.49
2018-10-19T02:46:24.789Z,982.50
2018-10-19T02:47:24.761Z,982.49
2018-10-19T02:48:24.756Z,982.49
2018-10-19T02:49:24.748Z,982.49
2018-10-19T02:50:24.785Z,982.50
2018-10-19T02:51:24.763Z,982.47
2018-10-19T02:52:24.751Z,982.47
2018-10-19T02:53:24.749Z,982.51
2018-10-19T02:54:24.744Z,982.49
2018-10-19T02:55:24.775Z,982.53
2018-10-19T02:56:24.740Z,982.53
2018-10-19T02:57:24.747Z,982.52
2018-10-19T02:58:24.738Z,982.52
2018-10-19T02:59:24.740Z,982.51
2018-10-19T03:00:24.762Z,982.53
2018-10-19T03:01:24.734Z,982.56
2018-10-19T03:02:24.729Z,982.51
2018-10-19T03:03:24.734Z,982.51
2018-10-19T03:04:24.727Z,982.53
2018-10-19T03:05:24.754Z,982.55
2018-10-19T03:06:24.754Z,982.57
2018-10-19T03:07:24.726Z,982.55
2018-10-19T03:08:24.718Z,982.55
2018-10-19T03:09:24.724Z,982.58
2018-10-19T03:10:24.719Z,982.57
2018-10-19T03:11:24.773Z,982.60
2018-10-19T03:12:24.717Z,982.56
2018-10-19T03:13:24.715Z,982.60
2018-10-19T03:14:24.713Z,982.61
2018-10-19T03:15:24.744Z,982.65
2018-10-19T03:16:24.708Z,982.65
2018-10-19T03:17:24.736Z,982.62
2018-10-19T03:18:24.703Z,982.59
2018-10-19T03:19:24.790Z,982.61
2018-10-19T03:20:24.701Z,982.61
2018-10-19T03:21:24.725Z,982.62
2018-10-19T03:22:24.698Z,982.60
2018-10-19T03:23:24.696Z,982.59
2018-10-19T03:24:24.690Z,982.56
2018-10-19T03:25:24.738Z,982.55
2018-10-19T03:26:24.790Z,982.56
2018-10-19T03:27:24.717Z,982.57
2018-10-19T03:28:24.687Z,982.56
2018-10-19T03:29:24.685Z,982.53
2018-10-19T03:30:24.682Z,982.56
2018-10-19T03:31:24.711Z,982.55
2018-10-19T03:32:24.676Z,982.53
2018-10-19T03:33:24.680Z,982.57
2018-10-19T03:34:24.683Z,982.56
2018-10-19T03:35:24.678Z,982.55
2018-10-19T03:36:24.703Z,982.52
2018-10-19T03:37:24.677Z,982.55
2018-10-19T03:38:24.666Z,982.56
2018-10-19T03:39:24.666Z,982.54
2018-10-19T03:40:24.669Z,982.57
2018-10-19T03:41:24.700Z,982.55
2018-10-19T03:42:24.662Z,982.58
2018-10-19T03:43:24.660Z,982.53
2018-10-19T03:44:24.658Z,982.52
2018-10-19T03:45:24.687Z,982.52
2018-10-19T03:46:24.656Z,982.51
2018-10-19T03:47:24.678Z,982.51
2018-10-19T03:48:24.650Z,982.51
2018-10-19T03:49:24.649Z,982.50
2018-10-19T03:50:24.660Z,982.54
2018-10-19T03:51:24.675Z,982.52
2018-10-19T03:52:24.643Z,982.54
2018-10-19T03:53:24.649Z,982.52
2018-10-19T03:54:24.640Z,982.54
2018-10-19T03:55:24.639Z,982.51
2018-10-19T03:56:24.663Z,982.59
2018-10-19T03:57:24.635Z,982.54
2018-10-19T03:58:24.633Z,982.61
2018-10-19T03:59:24.632Z,982.59
2018-10-19T04:00:24.656Z,982.62
2018-10-19T04:01:24.636Z,982.60
2018-10-19T04:02:24.625Z,982.57
2018-10-19T04:03:24.674Z,982.55
2018-10-19T04:04:24.625Z,982.53
2018-10-19T04:05:24.652Z,982.55
2018-10-19T04:06:24.618Z,982.57
2018-10-19T04:07:24.622Z,982.55
2018-10-19T04:08:24.613Z,982.55
2018-10-19T04:09:24.616Z,982.51
2018-10-19T04:10:24.641Z,982.54
2018-10-19T04:11:24.618Z,982.55
2018-10-19T04:12:24.608Z,982.58
2018-10-19T04:13:24.602Z,982.57
2018-10-19T04:14:24.604Z,982.56
2018-10-19T04:15:25.032Z,982.57
2018-10-19T04:16:24.608Z,982.60
2018-10-19T04:17:24.600Z,982.57
2018-10-19T04:18:24.598Z,982.55
2018-10-19T04:19:24.596Z,982.55
2018-10-19T04:20:24.620Z,982.55
2018-10-19T04:21:24.593Z,982.52
2018-10-19T04:22:24.591Z,982.52
2018-10-19T04:23:24.589Z,982.56
2018-10-19T04:24:24.582Z,982.54
2018-10-19T04:25:24.611Z,982.55
2018-10-19T04:26:24.583Z,982.56
2018-10-19T04:27:24.631Z,982.56
2018-10-19T04:28:24.573Z,982.55
2018-10-19T04:29:24.576Z,982.55
2018-10-19T04:30:24.604Z,982.57
2018-10-19T04:31:24.571Z,982.59
2018-10-19T04:32:24.573Z,982.59
2018-10-19T04:33:24.568Z,982.56
2018-10-19T04:34:24.567Z,982.58
2018-10-19T04:35:24.593Z,982.55
2018-10-19T04:36:24.560Z,982.54
2018-10-19T04:37:24.559Z,982.54
2018-10-19T04:38:24.558Z,982.52
2018-10-19T04:39:24.557Z,982.52
2018-10-19T04:40:24.585Z,982.49
2018-10-19T04:41:24.577Z,982.48
2018-10-19T04:42:24.583Z,982.48
2018-10-19T04:43:24.552Z,982.46
2018-10-19T04:44:24.575Z,982.49
2018-10-19T04:45:24.546Z,982.51
2018-10-19T04:46:24.537Z,982.49
2018-10-19T04:47:24.569Z,982.49
2018-10-19T04:48:24.540Z,982.51
2018-10-19T04:49:24.538Z,982.48
2018-10-19T04:50:24.559Z,982.53
2018-10-19T04:51:24.534Z,982.51
2018-10-19T04:52:24.532Z,982.51
2018-10-19T04:53:24.532Z,982.50
2018-10-19T04:54:24.536Z,982.50
2018-10-19T04:55:24.555Z,982.46
2018-10-19T04:56:24.524Z,982.45
2018-10-19T04:57:24.523Z,982.49
2018-10-19T04:58:24.524Z,982.48
2018-10-19T04:59:24.582Z,982.46
2018-10-19T05:00:24.548Z,982.45
2018-10-19T05:01:24.516Z,982.47
2018-10-19T05:02:24.533Z,982.51
2018-10-19T05:03:24.517Z,982.51
2018-10-19T05:04:24.565Z,982.50
2018-10-19T05:05:24.632Z,982.54
2018-10-19T05:06:24.519Z,982.53
2018-10-19T05:07:24.502Z,982.53
2018-10-19T05:08:25.474Z,982.54
2018-10-19T05:09:24.505Z,982.51
2018-10-19T05:10:24.524Z,982.53
2018-10-19T05:11:24.494Z,982.58
2018-10-19T05:12:24.529Z,982.59
2018-10-19T05:13:24.493Z,982.61
2018-10-19T05:14:24.493Z,982.63
2018-10-19T05:15:24.520Z,982.63
2018-10-19T05:16:24.485Z,982.65
2018-10-19T05:17:24.497Z,982.66
2018-10-19T05:18:24.482Z,982.66
2018-10-19T05:19:24.481Z,982.66
2018-10-19T05:20:24.973Z,982.68
2018-10-19T05:21:25.927Z,982.73
2018-10-19T05:22:24.473Z,982.67
2018-10-19T05:23:24.481Z,982.71
2018-10-19T05:24:24.469Z,982.70
2018-10-19T05:25:24.501Z,982.72
2018-10-19T05:26:24.466Z,982.75
2018-10-19T05:27:24.467Z,982.75
2018-10-19T05:28:24.462Z,982.72
2018-10-19T05:29:24.459Z,982.75
2018-10-19T05:30:24.488Z,982.75
2018-10-19T05:31:24.462Z,982.74
2018-10-19T05:32:24.455Z,982.71
2018-10-19T05:33:24.455Z,982.73
2018-10-19T05:34:25.434Z,982.75
2018-10-19T05:35:24.476Z,982.74
2018-10-19T05:36:24.448Z,982.77
2018-10-19T05:37:24.618Z,982.77
2018-10-19T05:38:24.441Z,982.73
2018-10-19T05:39:24.446Z,982.73
2018-10-19T05:40:24.466Z,982.77
2018-10-19T05:41:24.436Z,982.78
2018-10-19T05:42:24.439Z,982.79
2018-10-19T05:43:24.498Z,982.81
2018-10-19T05:44:24.437Z,982.83
2018-10-19T05:45:24.462Z,982.84
2018-10-19T05:46:24.431Z,982.86
2018-10-19T05:47:24.427Z,982.87
2018-10-19T05:48:24.425Z,982.89
2018-10-19T05:49:24.420Z,982.92
2018-10-19T05:50:25.451Z,982.92
2018-10-19T05:51:24.917Z,982.91
2018-10-19T05:52:24.939Z,982.91
2018-10-19T05:53:24.460Z,982.91
2018-10-19T05:54:24.937Z,982.94
2018-10-19T05:55:25.930Z,982.98
2018-10-19T05:56:24.406Z,982.97
2018-10-19T05:57:24.410Z,983.00
2018-10-19T05:58:24.405Z,982.99
2018-10-19T05:59:25.047Z,982.99
2018-10-19T06:00:24.432Z,983.00
2018-10-19T06:01:24.410Z,982.99
2018-10-19T06:02:24.494Z,983.04
2018-10-19T06:03:24.398Z,983.06
2018-10-19T06:04:24.396Z,983.08
2018-10-19T06:05:24.419Z,983.10
2018-10-19T06:06:24.388Z,983.12
2018-10-19T06:07:24.387Z,983.17
2018-10-19T06:08:24.380Z,983.18
2018-10-19T06:09:24.383Z,983.18
2018-10-19T06:10:24.407Z,983.24
2018-10-19T06:11:24.382Z,983.24
2018-10-19T06:12:24.377Z,983.24
2018-10-19T06:13:24.376Z,983.25
2018-10-19T06:14:24.371Z,983.26
2018-10-19T06:15:24.395Z,983.30
2018-10-19T06:16:24.372Z,983.25
2018-10-19T06:17:24.361Z,983.27
2018-10-19T06:18:24.364Z,983.26
2018-10-19T06:19:24.395Z,983.28
2018-10-19T06:20:24.360Z,983.30
2018-10-19T06:21:24.363Z,983.30
2018-10-19T06:22:24.356Z,983.29
2018-10-19T06:23:24.359Z,983.32
2018-10-19T06:24:24.386Z,983.30
2018-10-19T06:25:24.384Z,983.32
2018-10-19T06:26:24.403Z,983.33
2018-10-19T06:27:24.346Z,983.33
2018-10-19T06:28:24.344Z,983.34
2018-10-19T06:29:24.938Z,983.35
2018-10-19T06:30:24.369Z,983.35
2018-10-19T06:31:24.344Z,983.41
2018-10-19T06:32:24.342Z,983.37
2018-10-19T06:33:24.335Z,983.39
2018-10-19T06:34:24.334Z,983.39
2018-10-19T06:35:24.357Z,983.41
2018-10-19T06:36:24.327Z,983.41
2018-10-19T06:37:24.337Z,983.41
2018-10-19T06:38:24.325Z,983.39
2018-10-19T06:39:24.393Z,983.37
2018-10-19T06:40:24.345Z,983.38
2018-10-19T06:41:24.319Z,983.43
2018-10-19T06:42:24.315Z,983.43
2018-10-19T06:43:24.314Z,983.40
2018-10-19T06:44:24.341Z,983.43
2018-10-19T06:45:24.309Z,983.45
2018-10-19T06:46:24.305Z,983.45
2018-10-19T06:47:24.381Z,983.46
2018-10-19T06:48:24.304Z,983.44
2018-10-19T06:49:24.329Z,983.43
2018-10-19T06:50:24.294Z,983.44
2018-10-19T06:51:24.299Z,983.45
2018-10-19T06:52:24.295Z,983.45
2018-10-19T06:53:24.287Z,983.45
2018-10-19T06:54:24.319Z,983.44
2018-10-19T06:55:24.290Z,983.48
2018-10-19T06:56:24.287Z,983.47
2018-10-19T06:57:24.285Z,983.48
2018-10-19T06:58:24.283Z,983.48
2018-10-19T06:59:24.370Z,983.51
2018-10-19T07:00:24.280Z,983.52
2018-10-19T07:01:24.277Z,983.52
2018-10-19T07:02:24.278Z,983.54
2018-10-19T07:03:24.277Z,983.54
2018-10-19T07:04:24.306Z,983.54
2018-10-19T07:05:24.296Z,983.51
2018-10-19T07:06:24.267Z,983.52
2018-10-19T07:07:24.266Z,983.50
2018-10-19T07:08:24.326Z,983.52
2018-10-19T07:09:24.261Z,983.53
2018-10-19T07:10:24.297Z,983.53
2018-10-19T07:11:24.257Z,983.58
2018-10-19T07:12:24.257Z,983.56
2018-10-19T07:13:24.253Z,983.60
2018-10-19T07:14:24.249Z,983.60
2018-10-19T07:15:24.279Z,983.59
2018-10-19T07:16:24.249Z,983.65
2018-10-19T07:17:24.246Z,983.64
2018-10-19T07:18:24.245Z,983.66
2018-10-19T07:19:24.241Z,983.66
2018-10-19T07:20:24.270Z,983.64
2018-10-19T07:21:24.238Z,983.67
2018-10-19T07:22:24.243Z,983.65
2018-10-19T07:23:24.237Z,983.70
2018-10-19T07:24:24.259Z,983.69
2018-10-19T07:25:24.230Z,983.69
2018-10-19T07:26:24.230Z,983.69
2018-10-19T07:27:24.236Z,983.70
2018-10-19T07:28:24.228Z,983.73
2018-10-19T07:29:24.277Z,983.75
2018-10-19T07:30:24.228Z,983.76
2018-10-19T07:31:24.224Z,983.77
2018-10-19T07:32:24.219Z,983.74
2018-10-19T07:33:24.220Z,983.77
2018-10-19T07:34:24.244Z,983.74
2018-10-19T07:35:24.217Z,983.75
2018-10-19T07:36:24.296Z,983.78
2018-10-19T07:37:24.213Z,983.77
2018-10-19T07:38:24.212Z,983.78
2018-10-19T07:39:24.237Z,983.78
2018-10-19T07:40:24.206Z,983.80
2018-10-19T07:41:24.204Z,983.84
2018-10-19T07:42:24.224Z,983.83
2018-10-19T07:43:24.202Z,983.86
2018-10-19T07:44:24.240Z,983.83
2018-10-19T07:45:24.197Z,983.86
2018-10-19T07:46:24.204Z,983.85
2018-10-19T07:47:24.382Z,983.85
2018-10-19T07:48:24.246Z,983.84
2018-10-19T07:49:24.229Z,983.85
2018-10-19T07:50:24.189Z,983.84
2018-10-19T07:51:24.189Z,983.86
2018-10-19T07:52:24.202Z,983.87
2018-10-19T07:53:24.189Z,983.84
2018-10-19T07:54:24.245Z,983.85
2018-10-19T07:55:24.182Z,983.83
2018-10-19T07:56:24.183Z,983.87
2018-10-19T07:57:24.182Z,983.89
2018-10-19T07:58:24.191Z,983.87
2018-10-19T07:59:24.205Z,983.90
2018-10-19T08:00:24.221Z,983.91
2018-10-19T08:01:24.172Z,983.91
2018-10-19T08:02:24.175Z,983.92
2018-10-19T08:03:24.177Z,983.99
2018-10-19T08:04:24.201Z,983.98
2018-10-19T08:05:24.200Z,983.97
2018-10-19T08:06:24.169Z,983.95
2018-10-19T08:07:24.168Z,983.98
2018-10-19T08:08:24.163Z,984.00
2018-10-19T08:09:24.164Z,983.98
2018-10-19T08:10:24.193Z,983.97
2018-10-19T08:11:24.170Z,983.94
2018-10-19T08:12:24.159Z,983.97
2018-10-19T08:13:24.159Z,984.00
2018-10-19T08:14:24.156Z,983.98
2018-10-19T08:15:24.188Z,983.98
2018-10-19T08:16:24.156Z,984.02
2018-10-19T08:17:24.156Z,984.04
2018-10-19T08:18:24.156Z,984.01
2018-10-19T08:19:24.256Z,984.02
2018-10-19T08:20:24.181Z,984.05
2018-10-19T08:21:24.149Z,984.03
2018-10-19T08:22:24.148Z,984.05
2018-10-19T08:23:24.156Z,984.06
2018-10-19T08:24:24.149Z,984.06
2018-10-19T08:25:24.178Z,984.05
2018-10-19T08:26:24.147Z,984.05
2018-10-19T08:27:24.251Z,984.09
2018-10-19T08:28:24.137Z,984.09
2018-10-19T08:29:24.138Z,984.13
2018-10-19T08:30:24.165Z,984.11
2018-10-19T08:31:24.133Z,984.13
2018-10-19T08:32:24.134Z,984.10
2018-10-19T08:33:24.132Z,984.13
2018-10-19T08:34:24.134Z,984.11
2018-10-19T08:35:24.162Z,984.11
2018-10-19T08:36:24.140Z,984.11
2018-10-19T08:37:25.965Z,984.17
2018-10-19T08:38:24.129Z,984.17
2018-10-19T08:39:24.130Z,984.19
2018-10-19T08:40:24.162Z,984.16
2018-10-19T08:41:24.161Z,984.16
2018-10-19T08:42:24.129Z,984.18
2018-10-19T08:43:24.131Z,984.19
2018-10-19T08:44:24.153Z,984.16
2018-10-19T08:45:24.154Z,984.20
2018-10-19T08:46:24.123Z,984.19
2018-10-19T08:47:24.124Z,984.18
2018-10-19T08:48:24.123Z,984.18
2018-10-19T08:49:24.125Z,984.18
2018-10-19T08:50:24.152Z,984.20
2018-10-19T08:51:24.121Z,984.22
2018-10-19T08:52:24.119Z,984.24
2018-10-19T08:53:24.168Z,984.23
2018-10-19T08:54:24.186Z,984.24
2018-10-19T08:55:24.161Z,984.27
2018-10-19T08:56:24.914Z,984.26
2018-10-19T08:57:24.955Z,984.28
2018-10-19T08:58:24.982Z,984.31
2018-10-19T08:59:25.971Z,984.32
2018-10-19T09:00:24.141Z,984.34
2018-10-19T09:01:24.117Z,984.34
2018-10-19T09:02:24.118Z,984.36
2018-10-19T09:03:24.146Z,984.33
2018-10-19T09:04:24.114Z,984.35
2018-10-19T09:05:24.145Z,984.35
2018-10-19T09:06:24.116Z,984.34
2018-10-19T09:07:24.117Z,984.35
2018-10-19T09:08:24.116Z,984.34
2018-10-19T09:09:24.113Z,984.33
2018-10-19T09:10:24.145Z,984.32
2018-10-19T09:11:24.156Z,984.30
2018-10-19T09:12:24.184Z,984.36
2018-10-19T09:13:26.953Z,984.29
2018-10-19T09:14:24.109Z,984.36
2018-10-19T09:15:24.138Z,984.39
2018-10-19T09:16:24.112Z,984.36
2018-10-19T09:17:24.399Z,984.33
2018-10-19T09:18:24.927Z,984.35
2018-10-19T09:19:24.175Z,984.35
2018-10-19T09:20:25.895Z,984.36
2018-10-19T09:21:24.127Z,984.35
2018-10-19T09:22:24.115Z,984.34
2018-10-19T09:23:24.126Z,984.34
2018-10-19T09:24:24.125Z,984.32
2018-10-19T09:25:24.159Z,984.30
2018-10-19T09:26:24.116Z,984.26
2018-10-19T09:27:25.044Z,984.32
2018-10-19T09:28:24.149Z,984.32
2018-10-19T09:29:24.183Z,984.34
2018-10-19T09:30:24.157Z,984.32
2018-10-19T09:31:24.126Z,984.36
2018-10-19T09:32:24.118Z,984.37
2018-10-19T09:33:24.121Z,984.31
2018-10-19T09:34:25.005Z,984.34
2018-10-19T09:35:24.191Z,984.31
2018-10-19T09:36:24.233Z,984.31
2018-10-19T09:37:24.129Z,984.28
2018-10-19T09:38:24.121Z,984.27
2018-10-19T09:39:24.155Z,984.30
2018-10-19T09:40:24.223Z,984.30
2018-10-19T09:41:25.295Z,984.30
2018-10-19T09:42:24.133Z,984.29
2018-10-19T09:43:24.124Z,984.37
2018-10-19T09:44:24.131Z,984.39
2018-10-19T09:45:24.158Z,984.39
2018-10-19T09:46:24.126Z,984.41
2018-10-19T09:47:24.167Z,984.43
2018-10-19T09:48:24.136Z,984.39
2018-10-19T09:49:24.833Z,984.42
2018-10-19T09:50:24.165Z,984.41
2018-10-19T09:51:24.145Z,984.45
2018-10-19T09:52:24.131Z,984.46
2018-10-19T09:53:24.134Z,984.42
2018-10-19T09:54:24.147Z,984.43
2018-10-19T09:55:24.196Z,984.39
2018-10-19T09:56:24.827Z,984.39
2018-10-19T09:57:24.168Z,984.36
2018-10-19T09:58:24.149Z,984.34
2018-10-19T09:59:24.159Z,984.36
2018-10-19T10:00:24.163Z,984.36
2018-10-19T10:01:24.147Z,984.36
2018-10-19T10:02:24.129Z,984.40
2018-10-19T10:03:24.136Z,984.44
2018-10-19T10:04:24.157Z,984.41
2018-10-19T10:05:24.141Z,984.38
2018-10-19T10:06:24.170Z,984.38
2018-10-19T10:07:24.128Z,984.41
2018-10-19T10:08:24.132Z,984.42
2018-10-19T10:09:24.139Z,984.39
2018-10-19T10:10:24.172Z,984.42
2018-10-19T10:11:24.133Z,984.42
2018-10-19T10:12:24.135Z,984.40
2018-10-19T10:13:24.138Z,984.42
2018-10-19T10:14:24.141Z,984.43
2018-10-19T10:15:24.441Z,984.42
2018-10-19T10:16:24.144Z,984.45
2018-10-19T10:17:24.139Z,984.47
2018-10-19T10:18:24.268Z,984.44
2018-10-19T10:19:24.132Z,984.42
2018-10-19T10:20:24.155Z,984.45
2018-10-19T10:21:24.131Z,984.39
2018-10-19T10:22:24.133Z,984.38
2018-10-19T10:23:24.124Z,984.41
2018-10-19T10:24:24.152Z,984.40
2018-10-19T10:25:24.186Z,984.39
2018-10-19T10:26:24.161Z,984.36
2018-10-19T10:27:24.148Z,984.35
2018-10-19T10:28:24.143Z,984.38
2018-10-19T10:29:24.134Z,984.41
2018-10-19T10:30:24.164Z,984.39
2018-10-19T10:31:24.149Z,984.39
2018-10-19T10:32:24.191Z,984.39
2018-10-19T10:33:24.147Z,984.41
2018-10-19T10:34:24.211Z,984.38
2018-10-19T10:35:24.156Z,984.44
2018-10-19T10:36:24.160Z,984.44
2018-10-19T10:37:24.133Z,984.46
2018-10-19T10:38:24.148Z,984.44
2018-10-19T10:39:24.253Z,984.42
2018-10-19T10:40:24.164Z,984.42
2018-10-19T10:41:24.134Z,984.41
2018-10-19T10:42:24.131Z,984.43
2018-10-19T10:43:24.176Z,984.42
2018-10-19T10:44:24.168Z,984.41
2018-10-19T10:45:24.136Z,984.41
2018-10-19T10:46:24.146Z,984.39
2018-10-19T10:47:24.132Z,984.38
2018-10-19T10:48:24.133Z,984.39
2018-10-19T10:49:24.165Z,984.37
2018-10-19T10:50:24.171Z,984.39
2018-10-19T10:51:24.134Z,984.37
2018-10-19T10:52:24.137Z,984.40
2018-10-19T10:53:24.144Z,984.39
2018-10-19T10:54:24.133Z,984.40
2018-10-19T10:55:24.171Z,984.38
2018-10-19T10:56:24.136Z,984.41
2018-10-19T10:57:24.136Z,984.41
2018-10-19T10:58:24.147Z,984.34
2018-10-19T10:59:24.135Z,984.36
2018-10-19T11:00:24.169Z,984.33
2018-10-19T11:01:24.145Z,984.31
2018-10-19T11:02:24.154Z,984.35
2018-10-19T11:03:24.146Z,984.32
2018-10-19T11:04:24.131Z,984.35
2018-10-19T11:05:24.180Z,984.29
2018-10-19T11:06:24.149Z,984.29
2018-10-19T11:07:24.214Z,984.26
2018-10-19T11:08:24.143Z,984.27
2018-10-19T11:09:24.144Z,984.27
2018-10-19T11:10:24.181Z,984.24
2018-10-19T11:11:24.151Z,984.24
2018-10-19T11:12:24.988Z,984.24
2018-10-19T11:13:24.154Z,984.21
2018-10-19T11:14:24.144Z,984.19
2018-10-19T11:15:24.217Z,984.16
2018-10-19T11:16:24.144Z,984.18
2018-10-19T11:17:24.142Z,984.14
2018-10-19T11:18:24.153Z,984.17
2018-10-19T11:19:24.159Z,984.13
2018-10-19T11:20:24.190Z,984.15
2018-10-19T11:21:24.148Z,984.15
2018-10-19T11:22:24.154Z,984.11
2018-10-19T11:23:24.999Z,984.13
2018-10-19T11:24:24.183Z,984.15
2018-10-19T11:25:24.201Z,984.13
2018-10-19T11:26:24.150Z,984.13
2018-10-19T11:27:24.976Z,984.13
2018-10-19T11:28:24.154Z,984.13
2018-10-19T11:29:24.160Z,984.14
2018-10-19T11:30:24.286Z,984.13
2018-10-19T11:31:24.156Z,984.12
2018-10-19T11:32:24.980Z,984.10
2018-10-19T11:33:24.166Z,984.09
2018-10-19T11:34:24.155Z,984.10
2018-10-19T11:35:24.193Z,984.11
2018-10-19T11:36:24.161Z,984.11
2018-10-19T11:37:24.195Z,984.09
2018-10-19T11:38:24.161Z,984.08
2018-10-19T11:39:24.175Z,984.13
2018-10-19T11:40:24.201Z,984.07
2018-10-19T11:41:24.170Z,984.04
2018-10-19T11:42:24.990Z,984.07
2018-10-19T11:43:24.166Z,984.08
2018-10-19T11:44:24.172Z,984.07
2018-10-19T11:45:24.198Z,984.07
2018-10-19T11:46:24.171Z,984.07
2018-10-19T11:47:24.167Z,984.05
2018-10-19T11:48:24.172Z,984.07
2018-10-19T11:49:24.170Z,984.07
2018-10-19T11:50:24.203Z,984.09
2018-10-19T11:51:24.172Z,984.03
2018-10-19T11:52:24.183Z,984.04
2018-10-19T11:53:24.180Z,984.00
2018-10-19T11:54:24.182Z,984.00
2018-10-19T11:55:24.207Z,984.02
2018-10-19T11:56:24.177Z,984.02
2018-10-19T11:57:24.209Z,984.02
2018-10-19T11:58:24.182Z,984.03
2018-10-19T11:59:24.181Z,984.01
2018-10-19T12:00:24.982Z,984.01
2018-10-19T12:01:24.218Z,984.02
2018-10-19T12:02:24.197Z,984.00
2018-10-19T12:03:24.212Z,983.98
2018-10-19T12:04:24.190Z,983.99
2018-10-19T12:05:24.217Z,983.99
2018-10-19T12:06:24.190Z,983.99
2018-10-19T12:07:24.188Z,984.02
2018-10-19T12:08:24.189Z,983.99
2018-10-19T12:09:24.191Z,983.94
2018-10-19T12:10:24.218Z,983.93
2018-10-19T12:11:24.194Z,983.96
2018-10-19T12:12:24.187Z,983.91
2018-10-19T12:13:24.982Z,983.93
2018-10-19T12:14:24.988Z,983.95
2018-10-19T12:15:24.228Z,983.94
2018-10-19T12:16:24.215Z,983.94
2018-10-19T12:17:24.201Z,983.94
2018-10-19T12:18:24.204Z,983.92
2018-10-19T12:19:24.207Z,983.91
2018-10-19T12:20:24.238Z,983.87
2018-10-19T12:21:24.222Z,983.84
2018-10-19T12:22:24.209Z,983.89
2018-10-19T12:23:24.251Z,983.88
2018-10-19T12:24:24.208Z,983.84
2018-10-19T12:25:24.207Z,983.83
2018-10-19T12:26:24.236Z,983.78
2018-10-19T12:27:24.213Z,983.78
2018-10-19T12:28:24.214Z,983.84